Time;durP1;ratioP1;P1;durP2;ratioP2;P2;SDS_P1;SDS_P2;PMS_P1;PMS_P2;Temp;Humidity;BMP_temperature;BMP_pressure;BME280_temperature;BME280_humidity;BME280_pressure;Samples;Min_cycle;Max_cycle;Signal;HPM_P1;HPM_P2
2021/03/01 00:02:08;;;;;;;11.13;6.90;;;5.90;98.90;;;;;;5010347;28;20661;-67
2021/03/01 00:04:33;;;;;;;14.70;7.33;;;6.00;99.40;;;;;;5010715;28;20438;-67
2021/03/01 00:06:59;;;;;;;13.77;6.70;;;6.00;99.10;;;;;;5010088;28;20415;-67
2021/03/01 00:09:24;;;;;;;14.77;7.83;;;5.90;98.10;;;;;;5015694;28;20207;-68
2021/03/01 00:11:50;;;;;;;12.77;7.17;;;5.80;98.30;;;;;;5017051;28;20184;-67
2021/03/01 00:14:16;;;;;;;13.50;7.63;;;5.80;99.30;;;;;;5016999;28;20176;-67
2021/03/01 00:16:41;;;;;;;12.63;7.50;;;5.70;99.20;;;;;;5017269;28;20180;-67
2021/03/01 00:19:07;;;;;;;15.17;8.17;;;5.80;99.70;;;;;;5016608;28;20184;-68
2021/03/01 00:21:32;;;;;;;12.63;7.70;;;5.80;99.90;;;;;;5016800;28;20218;-67
2021/03/01 00:23:58;;;;;;;12.87;7.57;;;5.80;99.80;;;;;;5017014;28;20212;-67
2021/03/01 00:26:23;;;;;;;14.90;7.50;;;5.70;99.30;;;;;;5016859;28;20184;-67
2021/03/01 00:28:49;;;;;;;12.80;7.73;;;5.70;99.90;;;;;;5017177;28;20180;-68
2021/03/01 00:31:15;;;;;;;11.70;7.03;;;5.70;99.90;;;;;;5016880;28;20184;-67
2021/03/01 00:33:40;;;;;;;16.70;7.43;;;5.70;99.90;;;;;;5016851;28;20176;-67
2021/03/01 00:36:06;;;;;;;14.63;8.17;;;5.70;99.90;;;;;;5016748;28;20180;-67
2021/03/01 00:38:31;;;;;;;14.50;7.70;;;5.60;99.90;;;;;;5016830;28;20655;-67
2021/03/01 00:40:57;;;;;;;12.60;6.97;;;5.40;99.90;;;;;;5016775;28;20214;-67
2021/03/01 00:43:22;;;;;;;15.20;7.77;;;5.50;99.90;;;;;;5016499;28;20183;-67
2021/03/01 00:45:48;;;;;;;13.90;7.83;;;5.50;99.90;;;;;;5016834;28;20187;-67
2021/03/01 00:48:14;;;;;;;14.27;8.03;;;5.40;99.90;;;;;;5017050;28;20602;-67
2021/03/01 00:50:40;;;;;;;13.10;7.57;;;5.30;99.90;;;;;;5017437;28;20228;-66
2021/03/01 00:53:05;;;;;;;14.17;8.07;;;5.30;99.90;;;;;;5016754;28;20176;-67
2021/03/01 00:55:31;;;;;;;12.27;7.13;;;5.10;99.90;;;;;;5016477;28;20430;-67
2021/03/01 00:57:57;;;;;;;13.47;7.67;;;5.10;99.90;;;;;;5016724;28;20223;-69
2021/03/01 01:00:22;;;;;;;14.37;7.97;;;5.10;99.90;;;;;;5014491;28;20204;-68
2021/03/01 01:02:48;;;;;;;14.03;7.50;;;5.10;99.90;;;;;;5016449;28;20176;-67
2021/03/01 01:05:14;;;;;;;13.97;8.07;;;5.10;99.90;;;;;;5016472;28;20227;-69
2021/03/01 01:07:40;;;;;;;14.17;6.97;;;5.10;99.90;;;;;;5016056;28;20184;-67
2021/03/01 01:10:07;;;;;;;14.50;7.93;;;5.10;99.90;;;;;;5016659;28;20693;-67
2021/03/01 01:12:36;;;;;;;13.53;8.10;;;5.10;99.90;;;;;;5016423;28;20230;-67
2021/03/01 01:15:08;;;;;;;11.57;7.50;;;5.10;99.90;;;;;;5016143;28;20485;-67
2021/03/01 01:17:33;;;;;;;14.57;7.80;;;5.10;99.90;;;;;;5016106;28;20423;-68
2021/03/01 01:19:59;;;;;;;15.07;8.00;;;5.00;99.90;;;;;;4997212;28;20466;-67
2021/03/01 01:22:25;;;;;;;13.63;7.90;;;5.00;99.90;;;;;;5013493;28;20177;-68
2021/03/01 01:24:50;;;;;;;13.40;8.10;;;5.00;99.90;;;;;;4995590;28;20230;-67
2021/03/01 01:27:16;;;;;;;13.13;7.57;;;4.80;99.90;;;;;;5013417;28;20539;-66
2021/03/01 01:29:41;;;;;;;13.80;8.33;;;4.90;99.90;;;;;;5013232;28;20168;-67
2021/03/01 01:32:07;;;;;;;13.47;8.10;;;4.90;99.90;;;;;;5012818;28;20176;-68
2021/03/01 01:34:33;;;;;;;16.50;7.77;;;4.80;99.90;;;;;;5013344;28;20537;-67
2021/03/01 01:36:58;;;;;;;13.77;8.10;;;4.80;99.90;;;;;;5012875;28;20226;-67
2021/03/01 01:39:24;;;;;;;14.13;8.40;;;4.80;99.90;;;;;;5013243;28;20172;-68
2021/03/01 01:41:50;;;;;;;14.30;8.00;;;4.90;99.90;;;;;;5013194;28;20250;-68
2021/03/01 01:44:15;;;;;;;13.80;7.97;;;4.90;99.90;;;;;;5012858;28;20176;-67
2021/03/01 01:46:41;;;;;;;14.50;7.93;;;4.90;99.90;;;;;;5013036;28;20592;-67
2021/03/01 01:49:06;;;;;;;14.27;8.13;;;4.80;99.90;;;;;;5012456;28;20176;-67
2021/03/01 01:51:32;;;;;;;14.63;7.80;;;4.80;99.90;;;;;;5013227;28;20298;-67
2021/03/01 01:53:58;;;;;;;13.43;7.63;;;4.70;99.90;;;;;;5012779;28;20230;-67
2021/03/01 01:56:24;;;;;;;11.67;7.37;;;4.60;99.90;;;;;;5012276;28;20177;-67
2021/03/01 01:58:50;;;;;;;14.70;7.90;;;4.60;99.90;;;;;;5012893;28;20534;-67
2021/03/01 02:01:15;;;;;;;13.40;7.27;;;4.60;99.90;;;;;;5012162;28;20204;-68
2021/03/01 02:03:48;;;;;;;15.63;8.30;;;4.50;99.90;;;;;;5012626;28;20177;-67
2021/03/01 02:06:30;;;;;;;14.33;7.73;;;4.50;99.90;;;;;;5012515;28;20168;-67
2021/03/01 02:09:22;;;;;;;13.87;7.83;;;4.30;99.90;;;;;;5011605;28;20411;-68
2021/03/01 02:12:08;;;;;;;15.40;8.13;;;4.30;99.90;;;;;;5012436;28;20419;-67
2021/03/01 02:14:55;;;;;;;15.23;8.00;;;4.30;99.90;;;;;;5012213;28;20423;-68
2021/03/01 02:17:21;;;;;;;15.70;7.93;;;4.30;99.90;;;;;;5004954;28;20495;-67
2021/03/01 02:19:46;;;;;;;12.27;7.43;;;4.30;99.90;;;;;;5012065;28;20454;-68
2021/03/01 02:22:12;;;;;;;12.77;7.20;;;4.40;99.90;;;;;;5012007;28;20184;-69
2021/03/01 02:24:42;;;;;;;15.17;7.70;;;4.40;99.90;;;;;;5012103;28;20204;-68
2021/03/01 02:27:10;;;;;;;13.23;7.33;;;4.50;99.90;;;;;;5012113;28;20219;-67
2021/03/01 02:29:36;;;;;;;14.63;7.90;;;4.40;99.90;;;;;;5012080;28;20510;-68
2021/03/01 02:32:06;;;;;;;14.60;8.03;;;4.40;99.90;;;;;;5010365;28;20809;-68
2021/03/01 02:34:34;;;;;;;14.27;8.50;;;4.50;99.90;;;;;;5012046;28;20415;-67
2021/03/01 02:37:04;;;;;;;11.80;7.97;;;4.40;99.90;;;;;;5003747;28;20786;-67
2021/03/01 02:39:32;;;;;;;17.33;7.97;;;4.40;99.90;;;;;;5012097;28;20862;-67
2021/03/01 02:41:59;;;;;;;16.00;8.50;;;4.50;99.90;;;;;;5011581;28;20430;-67
2021/03/01 02:44:26;;;;;;;14.13;7.67;;;4.40;99.90;;;;;;5012027;28;20435;-67
2021/03/01 02:46:53;;;;;;;14.20;8.00;;;4.40;99.90;;;;;;5011773;28;20445;-67
2021/03/01 02:49:19;;;;;;;19.23;8.20;;;4.30;99.90;;;;;;5011865;28;20431;-67
2021/03/01 02:51:49;;;;;;;14.67;8.10;;;4.40;99.90;;;;;;4995201;28;20466;-67
2021/03/01 02:54:16;;;;;;;15.13;7.97;;;4.30;99.90;;;;;;5011418;28;20184;-67
2021/03/01 02:56:42;;;;;;;14.00;7.70;;;4.40;99.90;;;;;;5011668;28;20921;-67
2021/03/01 02:59:10;;;;;;;13.00;7.37;;;4.40;99.90;;;;;;5011434;28;20427;-67
2021/03/01 03:01:37;;;;;;;15.33;8.50;;;4.40;99.90;;;;;;5011461;28;20809;-67
2021/03/01 03:04:05;;;;;;;14.40;8.17;;;4.40;99.90;;;;;;5011218;28;20514;-67
2021/03/01 03:06:34;;;;;;;14.00;8.00;;;4.40;99.90;;;;;;5011607;28;20507;-67
2021/03/01 03:09:00;;;;;;;14.83;7.70;;;4.30;99.90;;;;;;5011462;28;20474;-67
2021/03/01 03:11:28;;;;;;;14.67;8.10;;;4.30;99.90;;;;;;5011478;28;20427;-68
2021/03/01 03:13:55;;;;;;;14.17;7.43;;;4.20;99.90;;;;;;5011458;28;20502;-67
2021/03/01 03:16:24;;;;;;;12.97;7.53;;;4.20;99.90;;;;;;5010911;28;20475;-67
2021/03/01 03:18:54;;;;;;;13.03;8.07;;;4.20;99.90;;;;;;5011292;28;20464;-68
2021/03/01 03:21:21;;;;;;;13.40;7.70;;;4.20;99.90;;;;;;5010958;28;20454;-68
2021/03/01 03:23:47;;;;;;;13.90;8.27;;;4.30;99.90;;;;;;5011124;28;20454;-67
2021/03/01 03:26:13;;;;;;;14.40;8.30;;;4.20;99.90;;;;;;5011392;28;20451;-67
2021/03/01 03:28:43;;;;;;;15.07;7.73;;;4.20;99.90;;;;;;5010973;28;20176;-66
2021/03/01 03:31:10;;;;;;;17.37;8.70;;;4.20;99.90;;;;;;4993509;28;20442;-67
2021/03/01 03:33:38;;;;;;;12.73;8.57;;;4.20;99.90;;;;;;5010687;28;20423;-67
2021/03/01 03:36:04;;;;;;;16.07;8.40;;;4.10;99.90;;;;;;5011038;28;20478;-68
2021/03/01 03:38:37;;;;;;;11.70;7.70;;;4.00;99.90;;;;;;5010530;28;20412;-67
2021/03/01 03:41:07;;;;;;;13.93;8.47;;;4.10;99.90;;;;;;5011003;28;20447;-67
2021/03/01 03:43:34;;;;;;;15.03;8.43;;;4.10;99.90;;;;;;4992085;28;20415;-67
2021/03/01 03:46:02;;;;;;;14.30;8.00;;;4.10;99.90;;;;;;5010867;28;20905;-67
2021/03/01 03:48:28;;;;;;;15.43;8.17;;;4.10;99.90;;;;;;5010883;28;20786;-66
2021/03/01 03:50:59;;;;;;;15.67;8.93;;;4.00;99.90;;;;;;5011746;28;20945;-67
2021/03/01 03:53:30;;;;;;;14.20;8.43;;;3.90;99.90;;;;;;5010962;28;20430;-69
2021/03/01 03:55:59;;;;;;;14.47;8.67;;;3.80;99.90;;;;;;5010545;28;20415;-66
2021/03/01 03:58:35;;;;;;;13.50;8.60;;;3.90;99.90;;;;;;5010960;28;20415;-68
2021/03/01 04:01:02;;;;;;;13.20;8.57;;;3.90;99.90;;;;;;5010328;28;20577;-67
2021/03/01 04:03:31;;;;;;;14.27;8.20;;;4.00;99.90;;;;;;5010523;28;20499;-66
2021/03/01 04:05:58;;;;;;;14.00;8.87;;;4.00;99.90;;;;;;5010208;28;20773;-67
2021/03/01 04:08:27;;;;;;;12.53;8.03;;;4.10;99.90;;;;;;5009342;28;20418;-67
2021/03/01 04:10:54;;;;;;;14.67;8.47;;;4.10;99.90;;;;;;5010220;28;20439;-68
2021/03/01 04:13:24;;;;;;;16.27;8.13;;;4.00;99.90;;;;;;5010380;28;20864;-67
2021/03/01 04:15:50;;;;;;;14.07;8.27;;;4.00;99.90;;;;;;5010562;28;20828;-67
2021/03/01 04:18:27;;;;;;;13.77;8.80;;;3.90;99.90;;;;;;5010306;28;20745;-66
2021/03/01 04:20:55;;;;;;;13.73;9.03;;;3.80;99.90;;;;;;5009023;28;20447;-66
2021/03/01 04:23:23;;;;;;;14.40;9.03;;;3.80;99.90;;;;;;5010110;28;20434;-66
2021/03/01 04:25:50;;;;;;;15.00;9.13;;;3.80;99.90;;;;;;5002791;28;20456;-67
2021/03/01 04:28:19;;;;;;;14.10;8.87;;;3.70;99.90;;;;;;5009690;28;20819;-66
2021/03/01 04:30:45;;;;;;;17.27;9.10;;;3.70;99.90;;;;;;4992878;28;20415;-66
2021/03/01 04:33:12;;;;;;;15.80;9.50;;;3.70;99.90;;;;;;5010193;28;20411;-67
2021/03/01 04:35:40;;;;;;;17.07;9.50;;;3.60;99.90;;;;;;5010394;28;20431;-67
2021/03/01 04:38:05;;;;;;;17.20;9.80;;;3.60;99.90;;;;;;4992672;28;20427;-66
2021/03/01 04:40:31;;;;;;;16.00;9.03;;;3.50;99.90;;;;;;5010107;28;20447;-66
2021/03/01 04:42:58;;;;;;;17.10;9.00;;;3.40;99.90;;;;;;5010431;28;20179;-67
2021/03/01 04:45:24;;;;;;;17.83;9.37;;;3.50;99.90;;;;;;5009982;28;20177;-68
2021/03/01 04:47:51;;;;;;;15.03;9.37;;;3.30;99.90;;;;;;5010152;28;20404;-66
2021/03/01 04:50:18;;;;;;;16.30;9.50;;;3.20;99.90;;;;;;5011140;28;20462;-67
2021/03/01 04:52:46;;;;;;;16.17;9.70;;;3.20;99.90;;;;;;5009871;28;20412;-66
2021/03/01 04:55:12;;;;;;;15.37;8.97;;;3.10;99.90;;;;;;5012260;28;20446;-68
2021/03/01 04:57:39;;;;;;;15.27;9.50;;;3.10;99.90;;;;;;5013529;28;20544;-66
2021/03/01 05:00:10;;;;;;;15.27;9.00;;;3.20;99.90;;;;;;5013974;28;20443;-66
2021/03/01 05:02:40;;;;;;;18.43;9.03;;;3.20;99.90;;;;;;4995429;28;20423;-67
2021/03/01 05:05:07;;;;;;;16.93;9.17;;;3.20;99.90;;;;;;5012503;28;20449;-67
2021/03/01 05:07:34;;;;;;;19.13;9.70;;;3.10;99.90;;;;;;5013861;28;20996;-66
2021/03/01 05:10:01;;;;;;;14.60;8.83;;;3.10;99.90;;;;;;5012741;28;20442;-67
2021/03/01 05:12:26;;;;;;;16.63;9.80;;;3.10;99.90;;;;;;5013671;28;20485;-67
2021/03/01 05:14:52;;;;;;;16.13;9.00;;;3.20;99.90;;;;;;5013603;28;20419;-66
2021/03/01 05:17:18;;;;;;;15.70;9.33;;;3.20;99.90;;;;;;5005488;28;20207;-66
2021/03/01 05:19:43;;;;;;;17.97;10.57;;;3.10;99.90;;;;;;5013078;28;20185;-67
2021/03/01 05:22:09;;;;;;;19.13;9.07;;;3.20;99.90;;;;;;5005394;28;20224;-67
2021/03/01 05:24:35;;;;;;;19.37;9.60;;;3.20;99.90;;;;;;5013415;28;20197;-66
2021/03/01 05:27:01;;;;;;;18.97;9.77;;;3.10;99.90;;;;;;5013085;28;20488;-67
2021/03/01 05:29:28;;;;;;;16.53;9.20;;;3.10;99.90;;;;;;5013290;28;20634;-67
2021/03/01 05:31:53;;;;;;;19.90;10.70;;;3.00;99.90;;;;;;5012795;28;20426;-66
2021/03/01 05:34:19;;;;;;;16.43;10.23;;;3.10;99.90;;;;;;5013142;28;20423;-66
2021/03/01 05:36:45;;;;;;;18.17;9.93;;;3.10;99.90;;;;;;5013146;28;20188;-68
2021/03/01 05:39:10;;;;;;;17.53;9.40;;;3.10;99.90;;;;;;5012741;28;20227;-67
2021/03/01 05:41:39;;;;;;;20.60;10.07;;;3.10;99.90;;;;;;5013032;28;20211;-67
2021/03/01 05:44:07;;;;;;;15.97;9.63;;;3.20;99.90;;;;;;5012745;28;20180;-68
2021/03/01 05:46:34;;;;;;;17.73;9.80;;;3.10;99.90;;;;;;5013165;28;20505;-69
2021/03/01 05:49:00;;;;;;;17.67;9.87;;;3.30;99.90;;;;;;5013137;28;20462;-69
2021/03/01 05:51:27;;;;;;;22.30;11.00;;;3.20;99.90;;;;;;5013646;28;20490;-69
2021/03/01 05:53:58;;;;;;;24.10;9.97;;;3.20;99.90;;;;;;5012907;28;20426;-67
2021/03/01 05:56:24;;;;;;;19.30;9.70;;;3.20;99.90;;;;;;5010808;28;20488;-67
2021/03/01 05:58:51;;;;;;;20.90;11.23;;;3.20;99.90;;;;;;5012585;28;20843;-67
2021/03/01 06:01:17;;;;;;;21.40;10.97;;;3.20;99.90;;;;;;5012369;28;20204;-67
2021/03/01 06:03:43;;;;;;;20.37;9.97;;;3.20;99.90;;;;;;5012542;28;20542;-67
2021/03/01 06:06:11;;;;;;;17.90;11.30;;;3.20;99.90;;;;;;4994267;28;20514;-67
2021/03/01 06:08:37;;;;;;;19.47;10.90;;;3.10;99.90;;;;;;5012958;28;20411;-67
2021/03/01 06:11:05;;;;;;;21.60;10.97;;;3.10;99.90;;;;;;5012486;28;20424;-67
2021/03/01 06:13:31;;;;;;;19.83;10.83;;;3.10;99.90;;;;;;5012538;28;20435;-65
2021/03/01 06:15:58;;;;;;;18.53;10.60;;;3.10;99.90;;;;;;5012733;28;20412;-68
2021/03/01 06:18:25;;;;;;;19.33;10.37;;;3.10;99.90;;;;;;5012734;28;20919;-67
2021/03/01 06:20:51;;;;;;;19.10;10.20;;;3.10;99.90;;;;;;5012051;28;20455;-67
2021/03/01 06:23:34;;;;;;;19.17;11.33;;;3.10;99.90;;;;;;5012426;28;20419;-66
2021/03/01 06:26:25;;;;;;;20.63;10.67;;;3.30;99.90;;;;;;5012163;28;20420;-66
2021/03/01 06:29:09;;;;;;;22.40;10.30;;;3.30;99.90;;;;;;5012242;28;20419;-67
2021/03/01 06:31:38;;;;;;;19.93;10.43;;;3.40;99.90;;;;;;5012480;28;20925;-68
2021/03/01 06:34:31;;;;;;;20.90;10.57;;;3.40;99.90;;;;;;5012221;28;20899;-68
2021/03/01 06:37:16;;;;;;;18.67;10.03;;;3.40;99.90;;;;;;5012123;28;20451;-67
2021/03/01 06:39:46;;;;;;;18.43;10.77;;;3.50;99.90;;;;;;5012141;28;20417;-66
2021/03/01 06:42:20;;;;;;;19.47;10.43;;;3.60;99.90;;;;;;5012246;28;21854;-66
2021/03/01 06:45:00;;;;;;;20.07;10.47;;;3.70;99.90;;;;;;5012093;28;20407;-67
2021/03/01 06:47:52;;;;;;;16.67;9.97;;;3.70;99.90;;;;;;5012216;28;20932;-68
2021/03/01 06:50:20;;;;;;;20.03;10.80;;;3.60;99.90;;;;;;5012195;28;20495;-67
2021/03/01 06:52:46;;;;;;;19.73;10.70;;;3.70;99.90;;;;;;5012417;28;20415;-69
2021/03/01 06:55:12;;;;;;;20.97;10.07;;;3.70;99.90;;;;;;5011386;28;20416;-67
2021/03/01 06:57:38;;;;;;;18.70;10.30;;;3.70;99.90;;;;;;5011843;28;20278;-67
2021/03/01 07:00:05;;;;;;;21.40;11.43;;;3.80;99.90;;;;;;5011808;28;20965;-67
2021/03/01 07:02:39;;;;;;;16.37;9.80;;;3.90;99.90;;;;;;5011737;28;20443;-67
2021/03/01 07:05:05;;;;;;;19.77;10.60;;;3.90;99.90;;;;;;5011638;28;20418;-69
2021/03/01 07:07:38;;;;;;;15.47;10.47;;;4.00;99.90;;;;;;5011372;28;20429;-67
2021/03/01 07:10:06;;;;;;;18.53;10.20;;;4.00;99.90;;;;;;5011583;28;20945;-66
2021/03/01 07:12:46;;;;;;;16.73;10.03;;;4.20;99.90;;;;;;5011108;28;20792;-67
2021/03/01 07:15:13;;;;;;;21.27;10.37;;;4.30;99.90;;;;;;4993147;28;20430;-68
2021/03/01 07:17:42;;;;;;;16.13;9.70;;;4.40;99.90;;;;;;5011420;28;20439;-68
2021/03/01 07:20:10;;;;;;;16.60;10.20;;;4.30;99.90;;;;;;5011531;28;20459;-67
2021/03/01 07:22:40;;;;;;;20.13;11.30;;;4.50;99.90;;;;;;5010474;28;20462;-68
2021/03/01 07:25:08;;;;;;;20.07;10.03;;;4.60;99.90;;;;;;5011937;28;20423;-67
2021/03/01 07:27:38;;;;;;;14.63;9.33;;;4.70;99.90;;;;;;5011719;28;20424;-68
2021/03/01 07:30:06;;;;;;;15.23;9.67;;;4.70;99.90;;;;;;5011009;28;20423;-68
2021/03/01 07:32:33;;;;;;;17.37;10.47;;;4.90;99.90;;;;;;5011415;28;20427;-66
2021/03/01 07:35:00;;;;;;;16.47;9.43;;;5.00;99.90;;;;;;5011505;28;20431;-68
2021/03/01 07:37:26;;;;;;;17.57;10.77;;;5.10;99.90;;;;;;4992004;28;20945;-65
2021/03/01 07:39:52;;;;;;;18.77;10.97;;;5.20;99.90;;;;;;5010262;28;20446;-68
2021/03/01 07:42:19;;;;;;;13.93;9.93;;;5.30;99.90;;;;;;5010698;28;20404;-67
2021/03/01 07:44:48;;;;;;;19.97;10.63;;;5.40;99.90;;;;;;4992733;28;20215;-67
2021/03/01 07:47:14;;;;;;;16.17;9.93;;;5.50;99.90;;;;;;5009329;28;20420;-68
2021/03/01 07:49:47;;;;;;;18.53;10.37;;;5.50;99.90;;;;;;5010782;28;20766;-67
2021/03/01 07:52:19;;;;;;;18.27;10.70;;;5.60;99.90;;;;;;5011119;28;20458;-66
2021/03/01 07:54:55;;;;;;;21.63;10.27;;;5.60;99.90;;;;;;5010587;28;20474;-67
2021/03/01 07:57:25;;;;;;;18.70;10.33;;;5.70;99.90;;;;;;4992042;28;20455;-67
2021/03/01 07:59:51;;;;;;;15.93;10.20;;;5.70;99.90;;;;;;5009668;28;20921;-67
2021/03/01 08:02:22;;;;;;;16.73;9.87;;;5.80;99.90;;;;;;4993090;28;20498;-66
2021/03/01 08:04:48;;;;;;;15.73;9.67;;;5.80;99.90;;;;;;5010501;28;20631;-67
2021/03/01 08:07:14;;;;;;;16.33;10.23;;;5.90;99.90;;;;;;5010435;28;20451;-66
2021/03/01 08:09:40;;;;;;;17.50;10.90;;;5.90;99.90;;;;;;5010642;28;20203;-66
2021/03/01 08:12:06;;;;;;;15.70;10.60;;;5.90;99.90;;;;;;5010486;28;20172;-67
2021/03/01 08:14:56;;;;;;;15.87;9.33;;;5.90;99.90;;;;;;5010153;28;20500;-66
2021/03/01 08:17:29;;;;;;;15.70;10.07;;;6.00;99.90;;;;;;5010457;28;20180;-66
2021/03/01 08:20:00;;;;;;;22.87;10.30;;;6.10;99.90;;;;;;5010261;28;20503;-67
2021/03/01 08:22:26;;;;;;;15.57;10.47;;;6.10;99.90;;;;;;5010263;28;20407;-67
2021/03/01 08:24:56;;;;;;;16.83;10.70;;;6.20;99.90;;;;;;5010105;28;20416;-67
2021/03/01 08:27:24;;;;;;;16.03;10.80;;;6.20;99.90;;;;;;5010155;28;20188;-67
2021/03/01 08:30:16;;;;;;;16.63;10.13;;;6.30;99.90;;;;;;5011963;28;20423;-66
2021/03/01 08:32:42;;;;;;;17.40;10.30;;;6.30;99.90;;;;;;5014135;28;20493;-68
2021/03/01 08:35:24;;;;;;;17.50;9.63;;;6.40;99.30;;;;;;4996701;28;20824;-66
2021/03/01 08:37:50;;;;;;;16.40;10.23;;;6.40;99.90;;;;;;5014045;28;20611;-67
2021/03/01 08:40:19;;;;;;;18.33;11.07;;;6.40;99.50;;;;;;5014211;28;20444;-68
2021/03/01 08:42:49;;;;;;;16.90;10.10;;;6.50;99.90;;;;;;5014285;28;20177;-68
2021/03/01 08:45:36;;;;;;;19.60;10.27;;;6.50;99.90;;;;;;5014377;28;20419;-68
2021/03/01 08:48:05;;;;;;;22.13;10.63;;;6.60;99.90;;;;;;4995260;28;20926;-67
2021/03/01 08:50:38;;;;;;;28.87;10.77;;;6.70;99.00;;;;;;5014943;28;20493;-66
2021/03/01 08:53:04;;;;;;;18.70;10.43;;;6.70;99.40;;;;;;5014039;28;20462;-68
2021/03/01 08:55:30;;;;;;;21.83;11.17;;;6.80;98.20;;;;;;5014011;28;20841;-66
2021/03/01 08:57:59;;;;;;;18.10;10.73;;;6.80;98.70;;;;;;5013679;28;20187;-66
2021/03/01 09:00:27;;;;;;;15.73;10.23;;;6.90;98.10;;;;;;5013886;28;20463;-65
2021/03/01 09:03:13;;;;;;;16.23;10.30;;;7.00;98.50;;;;;;5014130;28;20419;-68
2021/03/01 09:05:40;;;;;;;16.97;10.37;;;7.00;98.10;;;;;;5014044;28;20407;-65
2021/03/01 09:08:07;;;;;;;31.10;13.03;;;7.10;97.80;;;;;;5013540;28;20473;-66
2021/03/01 09:10:41;;;;;;;40.13;11.33;;;7.10;97.70;;;;;;5013490;28;20415;-64
2021/03/01 09:13:08;;;;;;;24.07;10.57;;;7.20;97.40;;;;;;5013472;28;20423;-65
2021/03/01 09:15:35;;;;;;;15.20;9.20;;;7.30;98.20;;;;;;5013636;28;20404;-67
2021/03/01 09:18:06;;;;;;;18.47;10.13;;;7.20;96.90;;;;;;5013443;28;20423;-65
2021/03/01 09:20:59;;;;;;;16.13;9.73;;;7.30;97.30;;;;;;4994755;28;20463;-66
2021/03/01 09:23:37;;;;;;;21.97;10.30;;;7.40;97.20;;;;;;5008951;28;20428;-69
2021/03/01 09:26:04;;;;;;;15.53;11.23;;;7.40;96.70;;;;;;5012622;28;20420;-67
2021/03/01 09:28:35;;;;;;;15.77;10.50;;;7.50;97.40;;;;;;5013373;28;20416;-66
2021/03/01 09:31:13;;;;;;;20.33;10.83;;;7.40;96.90;;;;;;5013168;28;20518;-67
2021/03/01 09:33:41;;;;;;;14.07;10.27;;;7.40;96.80;;;;;;5013155;28;20462;-68
2021/03/01 09:36:07;;;;;;;21.23;10.33;;;7.60;97.60;;;;;;5011926;28;20454;-68
2021/03/01 09:38:33;;;;;;;19.60;11.63;;;7.70;95.80;;;;;;5013543;28;20902;-69
2021/03/01 09:41:11;;;;;;;16.73;11.00;;;7.70;96.50;;;;;;5011928;28;20466;-66
2021/03/01 09:43:38;;;;;;;17.33;10.37;;;7.60;97.20;;;;;;5013370;28;20419;-67
2021/03/01 09:46:05;;;;;;;20.93;10.83;;;7.80;96.70;;;;;;5013303;28;20414;-66
2021/03/01 09:48:35;;;;;;;17.00;10.30;;;7.90;96.70;;;;;;5013080;28;20451;-70
2021/03/01 09:51:02;;;;;;;18.27;10.77;;;8.00;96.70;;;;;;5012847;28;20442;-66
2021/03/01 09:53:28;;;;;;;18.93;11.07;;;8.00;95.90;;;;;;5013142;28;20420;-66
2021/03/01 09:55:55;;;;;;;15.13;10.73;;;8.00;96.00;;;;;;5012751;28;20424;-67
2021/03/01 09:58:24;;;;;;;19.20;11.93;;;8.00;95.90;;;;;;5012905;28;20938;-67
2021/03/01 10:00:50;;;;;;;20.80;11.87;;;8.10;95.50;;;;;;5012868;28;20467;-67
2021/03/01 10:03:15;;;;;;;15.67;10.23;;;8.10;95.00;;;;;;5013151;28;20411;-69
2021/03/01 10:05:51;;;;;;;16.33;10.60;;;8.20;95.60;;;;;;5012835;28;20430;-67
2021/03/01 10:08:24;;;;;;;17.07;10.10;;;8.20;95.30;;;;;;5012322;28;20179;-66
2021/03/01 10:10:51;;;;;;;16.93;10.97;;;8.30;95.50;;;;;;5013187;28;20435;-67
2021/03/01 10:13:29;;;;;;;15.03;10.27;;;8.30;95.40;;;;;;5012070;28;20857;-70
2021/03/01 10:15:55;;;;;;;14.97;10.27;;;8.50;95.00;;;;;;5011343;28;20411;-67
2021/03/01 10:18:26;;;;;;;16.90;11.27;;;8.60;94.90;;;;;;5012276;28;20419;-67
2021/03/01 10:21:01;;;;;;;15.77;10.20;;;8.70;93.20;;;;;;5011484;28;20906;-70
2021/03/01 10:23:38;;;;;;;15.03;10.83;;;8.80;93.60;;;;;;5012490;28;20419;-67
2021/03/01 10:26:21;;;;;;;15.33;10.37;;;8.90;92.40;;;;;;5012367;28;20416;-68
2021/03/01 10:29:12;;;;;;;16.37;10.70;;;9.00;92.50;;;;;;5012352;28;20423;-67
2021/03/01 10:31:39;;;;;;;13.70;10.13;;;9.10;92.60;;;;;;5009097;28;20841;-67
2021/03/01 10:34:05;;;;;;;16.90;11.07;;;9.20;92.50;;;;;;5013031;28;20430;-67
2021/03/01 10:36:55;;;;;;;13.97;9.87;;;9.30;92.30;;;;;;5012753;28;20419;-67
2021/03/01 10:39:23;;;;;;;13.73;9.77;;;9.30;91.40;;;;;;5013147;28;20728;-68
2021/03/01 10:41:54;;;;;;;16.83;10.23;;;9.40;91.50;;;;;;5014353;28;20535;-69
2021/03/01 10:44:33;;;;;;;14.03;9.93;;;9.40;91.40;;;;;;5013036;28;20447;-67
2021/03/01 10:47:11;;;;;;;15.87;10.00;;;9.40;90.70;;;;;;5014059;28;20484;-67
2021/03/01 10:49:37;;;;;;;13.50;9.13;;;9.50;90.80;;;;;;5013872;28;20437;-67
2021/03/01 10:52:06;;;;;;;17.20;10.23;;;9.60;90.60;;;;;;5012738;28;20466;-69
2021/03/01 10:54:32;;;;;;;15.63;9.93;;;9.80;89.90;;;;;;5013482;28;20442;-67
2021/03/01 10:56:58;;;;;;;14.70;10.33;;;9.90;88.50;;;;;;5013303;28;20184;-67
2021/03/01 10:59:23;;;;;;;15.17;10.07;;;10.00;88.50;;;;;;5012807;28;20184;-67
2021/03/01 11:01:49;;;;;;;16.60;9.80;;;10.20;87.60;;;;;;5012567;28;20200;-68
2021/03/01 11:04:16;;;;;;;14.07;9.47;;;10.20;83.40;;;;;;5012582;28;20259;-68
2021/03/01 11:06:44;;;;;;;16.00;10.27;;;10.30;88.30;;;;;;5012716;28;20172;-69
2021/03/01 11:09:10;;;;;;;13.77;8.83;;;10.40;84.20;;;;;;5012011;28;20548;-68
2021/03/01 11:11:37;;;;;;;15.40;9.63;;;10.40;83.30;;;;;;5011440;28;20192;-68
2021/03/01 11:14:04;;;;;;;14.83;10.03;;;10.60;85.90;;;;;;5011912;28;20199;-68
2021/03/01 11:16:29;;;;;;;15.53;9.70;;;10.80;81.40;;;;;;5010825;28;20183;-70
2021/03/01 11:18:55;;;;;;;12.90;9.33;;;10.90;79.80;;;;;;5012144;28;20173;-67
2021/03/01 11:21:22;;;;;;;15.93;9.57;;;11.00;78.60;;;;;;5012048;28;20558;-67
2021/03/01 11:23:47;;;;;;;16.97;9.80;;;10.90;79.80;;;;;;5012174;28;20669;-67
2021/03/01 11:26:16;;;;;;;15.27;9.87;;;11.10;82.00;;;;;;4993756;28;20176;-67
2021/03/01 11:28:42;;;;;;;12.63;8.87;;;11.30;79.30;;;;;;5012058;28;20164;-67
2021/03/01 11:31:09;;;;;;;12.67;8.87;;;11.50;77.70;;;;;;5011763;28;20228;-67
2021/03/01 11:33:35;;;;;;;13.80;9.37;;;11.60;76.40;;;;;;5012052;28;20601;-67
2021/03/01 11:36:01;;;;;;;13.37;9.43;;;11.70;74.20;;;;;;5011785;28;20272;-67
2021/03/01 11:38:27;;;;;;;21.47;9.77;;;11.90;74.60;;;;;;5011716;28;20191;-68
2021/03/01 11:40:53;;;;;;;18.13;10.77;;;12.10;73.00;;;;;;4993698;28;20196;-67
2021/03/01 11:43:19;;;;;;;13.23;9.10;;;12.10;74.70;;;;;;5011686;28;20182;-69
2021/03/01 11:45:45;;;;;;;11.97;8.60;;;12.40;69.90;;;;;;5011562;28;20186;-67
2021/03/01 11:48:13;;;;;;;13.17;9.20;;;12.60;69.00;;;;;;5011829;28;20177;-69
2021/03/01 11:50:40;;;;;;;16.13;9.17;;;12.70;67.90;;;;;;5012492;28;20200;-67
2021/03/01 11:53:06;;;;;;;11.63;8.63;;;12.70;69.20;;;;;;5011949;28;20512;-68
2021/03/01 11:55:31;;;;;;;16.57;9.20;;;12.80;67.50;;;;;;5011430;28;20180;-67
2021/03/01 11:57:57;;;;;;;15.83;9.47;;;12.90;66.10;;;;;;5011504;28;20630;-68
2021/03/01 12:00:23;;;;;;;11.27;8.40;;;13.10;67.20;;;;;;5011346;28;20204;-69
2021/03/01 12:02:49;;;;;;;43.87;23.10;;;13.60;65.30;;;;;;5010686;28;20241;-69
2021/03/01 12:05:14;;;;;;;19.07;12.53;;;14.00;63.00;;;;;;5010348;28;20180;-69
2021/03/01 12:07:41;;;;;;;26.20;13.70;;;14.20;59.80;;;;;;5011154;28;20169;-68
2021/03/01 12:10:07;;;;;;;15.60;8.33;;;14.20;59.40;;;;;;5010607;28;20179;-68
2021/03/01 12:12:33;;;;;;;14.17;8.60;;;14.80;55.40;;;;;;5010787;28;20653;-69
2021/03/01 12:14:59;;;;;;;12.90;8.63;;;15.20;58.50;;;;;;5010731;28;20259;-69
2021/03/01 12:17:24;;;;;;;12.57;8.70;;;15.90;54.40;;;;;;5011325;28;20168;-69
2021/03/01 12:19:50;;;;;;;11.77;8.83;;;16.60;51.80;;;;;;5010832;28;20223;-68
2021/03/01 12:22:16;;;;;;;11.57;8.40;;;17.00;48.80;;;;;;5011085;28;20705;-70
2021/03/01 12:24:42;;;;;;;10.33;8.13;;;17.40;48.80;;;;;;5011017;28;20184;-69
2021/03/01 12:27:07;;;;;;;12.57;8.13;;;17.70;47.20;;;;;;5011372;28;20650;-70
2021/03/01 12:29:33;;;;;;;14.67;9.67;;;18.10;45.40;;;;;;5009828;28;20175;-68
2021/03/01 12:31:59;;;;;;;14.20;9.27;;;18.40;43.60;;;;;;5010308;28;20185;-68
2021/03/01 12:34:24;;;;;;;10.67;8.50;;;18.80;42.00;;;;;;5010638;28;20180;-68
2021/03/01 12:36:50;;;;;;;11.40;8.63;;;19.00;41.60;;;;;;5010609;28;20188;-69
2021/03/01 12:39:16;;;;;;;12.30;8.93;;;19.30;40.90;;;;;;5010115;28;20184;-69
2021/03/01 12:41:42;;;;;;;9.97;8.30;;;19.80;40.10;;;;;;5010202;28;20560;-70
2021/03/01 12:44:08;;;;;;;13.73;9.47;;;20.10;39.00;;;;;;5010178;28;20217;-69
2021/03/01 12:46:41;;;;;;;9.87;8.43;;;20.40;38.20;;;;;;5010240;28;20627;-69
2021/03/01 12:49:06;;;;;;;10.17;8.67;;;20.70;36.80;;;;;;4992941;28;20212;-70